Time;durP1;ratioP1;P1;durP2;ratioP2;P2;SDS_P1;SDS_P2;PMS_P1;PMS_P2;Temp;Humidity;BMP_temperature;BMP_pressure;BME280_temperature;BME280_humidity;BME280_pressure;Samples;Min_cycle;Max_cycle;Signal;HPM_P1;HPM_P2
2021/11/04 00:01:15;;;;;;;10.45;6.03;;;;;;;;;;4985229;28;20039;-85
2021/11/04 00:03:41;;;;;;;12.57;6.55;;;;;;;;;;4988432;28;20026;-85
2021/11/04 00:06:07;;;;;;;12.70;6.00;;;;;;;;;;4992005;28;20027;-85
2021/11/04 00:08:33;;;;;;;10.00;6.03;;;;;;;;;;4990351;28;20442;-85
2021/11/04 00:10:59;;;;;;;12.23;6.53;;;;;;;;;;4973058;28;20022;-85
2021/11/04 00:13:25;;;;;;;10.88;5.85;;;;;;;;;;4975958;28;20030;-85
2021/11/04 00:15:51;;;;;;;13.50;6.88;;;;;;;;;;4986695;28;20134;-85
2021/11/04 00:18:17;;;;;;;14.52;7.38;;;;;;;;;;4990342;28;20045;-85
2021/11/04 00:20:43;;;;;;;10.30;5.72;;;;;;;;;;4986524;28;20109;-85
2021/11/04 00:23:09;;;;;;;11.38;6.93;;;;;;;;;;4986950;28;20126;-85
2021/11/04 00:25:35;;;;;;;11.10;5.93;;;;;;;;;;4983518;28;20034;-85
2021/11/04 00:28:01;;;;;;;11.73;6.85;;;;;;;;;;4983392;28;20042;-85
2021/11/04 00:30:27;;;;;;;12.48;6.43;;;;;;;;;;4975082;28;20037;-85
2021/11/04 00:32:54;;;;;;;11.57;6.07;;;;;;;;;;4986762;28;20033;-85
2021/11/04 00:35:21;;;;;;;12.15;6.93;;;;;;;;;;4984705;28;20030;-85
2021/11/04 00:37:48;;;;;;;11.60;6.43;;;;;;;;;;4987728;28;20054;-85
2021/11/04 00:40:15;;;;;;;12.23;6.45;;;;;;;;;;4981979;28;20117;-85
2021/11/04 00:42:42;;;;;;;15.15;6.88;;;;;;;;;;4973987;28;20145;-85
2021/11/04 00:45:08;;;;;;;12.40;6.90;;;;;;;;;;4991263;28;20423;-85
2021/11/04 00:47:34;;;;;;;13.63;6.88;;;;;;;;;;4989245;28;20061;-85
2021/11/04 00:50:00;;;;;;;12.35;6.50;;;;;;;;;;4990673;28;20034;-85
2021/11/04 00:52:26;;;;;;;11.13;6.65;;;;;;;;;;4990963;28;20414;-85
2021/11/04 00:54:52;;;;;;;17.20;8.60;;;;;;;;;;4978979;28;20038;-85
2021/11/04 00:57:18;;;;;;;14.68;7.53;;;;;;;;;;4993370;28;20049;-85
2021/11/04 00:59:44;;;;;;;11.35;6.47;;;;;;;;;;4980330;28;20026;-85
2021/11/04 01:02:11;;;;;;;13.77;7.15;;;;;;;;;;4966848;28;20037;-85
2021/11/04 01:04:37;;;;;;;14.15;7.95;;;;;;;;;;4993988;28;20027;-85
2021/11/04 01:07:03;;;;;;;13.80;7.22;;;;;;;;;;4984297;28;20094;-85
2021/11/04 01:09:29;;;;;;;13.93;7.32;;;;;;;;;;4993580;28;20022;-85
2021/11/04 01:11:55;;;;;;;15.10;7.45;;;;;;;;;;4982142;28;20031;-85
2021/11/04 01:14:21;;;;;;;14.32;6.97;;;;;;;;;;4981530;28;20112;-85
2021/11/04 01:16:47;;;;;;;14.27;7.18;;;;;;;;;;4977406;28;20035;-85
2021/11/04 01:19:14;;;;;;;13.63;7.28;;;;;;;;;;4974075;28;20089;-85
2021/11/04 01:21:41;;;;;;;13.38;7.20;;;;;;;;;;4969169;28;20042;-85
2021/11/04 01:24:07;;;;;;;16.45;7.78;;;;;;;;;;4992026;28;20026;-85
2021/11/04 01:26:33;;;;;;;14.52;8.20;;;;;;;;;;4992855;28;20054;-85
2021/11/04 01:28:59;;;;;;;17.70;8.85;;;;;;;;;;4989948;28;20022;-85
2021/11/04 01:31:25;;;;;;;17.48;8.55;;;;;;;;;;4990966;28;20114;-85
2021/11/04 01:33:51;;;;;;;14.35;8.30;;;;;;;;;;4991411;28;20117;-85
2021/11/04 01:36:17;;;;;;;17.50;8.80;;;;;;;;;;4985596;28;20130;-85
2021/11/04 01:38:43;;;;;;;17.05;8.32;;;;;;;;;;4982827;28;20042;-85
2021/11/04 01:41:09;;;;;;;15.95;8.77;;;;;;;;;;4992185;28;20029;-85
2021/11/04 01:43:36;;;;;;;17.67;8.43;;;;;;;;;;4990384;28;20033;-85
2021/11/04 01:46:03;;;;;;;18.42;8.95;;;;;;;;;;4989364;28;20034;-85
2021/11/04 01:48:29;;;;;;;17.83;8.45;;;;;;;;;;4992869;28;20081;-85
2021/11/04 01:50:55;;;;;;;18.92;8.88;;;;;;;;;;4986701;28;20420;-85
2021/11/04 01:53:21;;;;;;;18.25;9.40;;;;;;;;;;4977267;28;20149;-85
2021/11/04 01:55:48;;;;;;;19.20;9.20;;;;;;;;;;4984770;28;20085;-85
2021/11/04 01:58:14;;;;;;;15.13;8.15;;;;;;;;;;4991474;28;20034;-85
2021/11/04 02:00:40;;;;;;;17.05;9.07;;;;;;;;;;4984543;28;20019;-85
2021/11/04 02:03:25;;;;;;;16.67;8.68;;;;;;;;;;4991748;28;20038;-85
2021/11/04 02:06:11;;;;;;;20.15;9.85;;;;;;;;;;4982128;28;20562;-85
2021/11/04 02:08:37;;;;;;;20.52;9.63;;;;;;;;;;4986612;28;20130;-85
2021/11/04 02:11:09;;;;;;;17.60;9.23;;;;;;;;;;4988091;28;20030;-85
2021/11/04 02:13:40;;;;;;;18.70;9.80;;;;;;;;;;4991000;28;20034;-85
2021/11/04 02:16:06;;;;;;;20.90;10.13;;;;;;;;;;4990448;28;20058;-85
2021/11/04 02:18:33;;;;;;;18.20;9.75;;;;;;;;;;4987848;28;20035;-85
2021/11/04 02:21:02;;;;;;;17.35;9.25;;;;;;;;;;4975680;28;20418;-85
2021/11/04 02:23:31;;;;;;;19.02;9.07;;;;;;;;;;4979236;28;20534;-85
2021/11/04 02:25:58;;;;;;;19.85;9.90;;;;;;;;;;4984668;28;20422;-85
2021/11/04 02:28:25;;;;;;;17.88;9.48;;;;;;;;;;4976810;28;20142;-85
2021/11/04 02:30:51;;;;;;;24.02;10.02;;;;;;;;;;4991225;28;20433;-85
2021/11/04 02:33:17;;;;;;;18.10;9.73;;;;;;;;;;4978549;28;20031;-85
2021/11/04 02:35:49;;;;;;;23.45;10.63;;;;;;;;;;4984900;28;20120;-85
2021/11/04 02:38:19;;;;;;;24.13;11.88;;;;;;;;;;4987835;28;20102;-85
2021/11/04 02:40:46;;;;;;;24.95;11.52;;;;;;;;;;4991232;28;20076;-85
2021/11/04 02:43:13;;;;;;;21.67;11.27;;;;;;;;;;4975432;28;20540;-85
2021/11/04 02:45:39;;;;;;;23.92;12.23;;;;;;;;;;4991444;28;20027;-85
2021/11/04 02:48:05;;;;;;;22.70;11.13;;;;;;;;;;4989302;28;20041;-85
2021/11/04 02:50:32;;;;;;;19.77;10.10;;;;;;;;;;4993372;28;20030;-85
2021/11/04 02:52:58;;;;;;;20.67;10.65;;;;;;;;;;4988676;28;20121;-85
2021/11/04 02:55:34;;;;;;;23.25;11.55;;;;;;;;;;4989195;28;20109;-85
2021/11/04 02:58:03;;;;;;;22.25;12.05;;;;;;;;;;4988221;28;20390;-85
2021/11/04 03:00:29;;;;;;;21.13;9.82;;;;;;;;;;4990315;28;20112;-85
2021/11/04 03:02:55;;;;;;;22.50;11.30;;;;;;;;;;4988295;28;20077;-85
2021/11/04 03:05:21;;;;;;;26.50;12.02;;;;;;;;;;4979285;28;20517;-85
2021/11/04 03:07:47;;;;;;;23.17;11.25;;;;;;;;;;4990622;28;20442;-85
2021/11/04 03:10:13;;;;;;;23.65;12.27;;;;;;;;;;4988565;28;20034;-85
2021/11/04 03:12:39;;;;;;;20.85;11.13;;;;;;;;;;4986813;28;20116;-85
2021/11/04 03:15:09;;;;;;;22.00;11.02;;;;;;;;;;4975680;28;20903;-85
2021/11/04 03:17:36;;;;;;;24.73;11.88;;;;;;;;;;4975067;28;20030;-85
2021/11/04 03:20:03;;;;;;;25.35;12.93;;;;;;;;;;4987995;28;20809;-85
2021/11/04 03:22:29;;;;;;;25.63;12.65;;;;;;;;;;4992342;28;20041;-85
2021/11/04 03:24:55;;;;;;;21.42;11.43;;;;;;;;;;4977091;28;20038;-85
2021/11/04 03:27:21;;;;;;;21.38;11.80;;;;;;;;;;4974106;28;20048;-85
2021/11/04 03:29:48;;;;;;;25.10;12.63;;;;;;;;;;4975633;28;20033;-85
2021/11/04 03:32:16;;;;;;;22.80;11.70;;;;;;;;;;4986243;28;20482;-85
2021/11/04 03:34:43;;;;;;;24.58;11.77;;;;;;;;;;4977919;28;20066;-85
2021/11/04 03:37:11;;;;;;;24.30;12.57;;;;;;;;;;4974213;28;20443;-85
2021/11/04 03:39:38;;;;;;;24.05;12.32;;;;;;;;;;4983489;28;20442;-85
2021/11/04 03:42:04;;;;;;;23.27;11.52;;;;;;;;;;4991229;28;20125;-85
2021/11/04 03:44:31;;;;;;;26.67;12.73;;;;;;;;;;4990753;28;20076;-85
2021/11/04 03:46:57;;;;;;;28.23;13.90;;;;;;;;;;4989193;28;20545;-85
2021/11/04 03:49:24;;;;;;;26.05;12.50;;;;;;;;;;4990881;28;20124;-85
2021/11/04 03:51:51;;;;;;;20.90;11.50;;;;;;;;;;4990576;28;20064;-85
2021/11/04 03:54:18;;;;;;;25.23;12.40;;;;;;;;;;4975070;28;20555;-85
2021/11/04 03:56:44;;;;;;;23.23;11.75;;;;;;;;;;4987441;28;20078;-85
2021/11/04 03:59:10;;;;;;;23.50;12.15;;;;;;;;;;4985434;28;20049;-85
2021/11/04 04:01:36;;;;;;;22.52;12.10;;;;;;;;;;4987250;28;20571;-85
2021/11/04 04:04:03;;;;;;;26.77;11.93;;;;;;;;;;4984839;28;20117;-85
2021/11/04 04:06:29;;;;;;;25.75;13.48;;;;;;;;;;4974490;28;20483;-85
2021/11/04 04:08:56;;;;;;;22.35;11.82;;;;;;;;;;4988963;28;20158;-85
2021/11/04 04:11:23;;;;;;;28.63;14.82;;;;;;;;;;4973779;28;20553;-85
2021/11/04 04:13:51;;;;;;;23.35;12.32;;;;;;;;;;4984039;28;20026;-85
2021/11/04 04:16:17;;;;;;;26.73;12.68;;;;;;;;;;4976589;28;20035;-85
2021/11/04 04:18:44;;;;;;;28.88;14.95;;;;;;;;;;4985215;28;20514;-85
2021/11/04 04:21:10;;;;;;;28.45;14.05;;;;;;;;;;4982716;28;20084;-85
2021/11/04 04:23:36;;;;;;;34.28;15.75;;;;;;;;;;4986649;28;20034;-84
2021/11/04 04:26:02;;;;;;;29.70;15.18;;;;;;;;;;4977044;28;20037;-84
2021/11/04 04:28:28;;;;;;;34.20;16.55;;;;;;;;;;4985555;28;20118;-85
2021/11/04 04:30:54;;;;;;;33.50;17.50;;;;;;;;;;4993609;28;20030;-85
2021/11/04 04:33:20;;;;;;;31.58;16.52;;;;;;;;;;4978227;28;20109;-85
2021/11/04 04:35:46;;;;;;;34.70;16.65;;;;;;;;;;4987904;28;20120;-85
2021/11/04 04:38:12;;;;;;;36.00;17.27;;;;;;;;;;4990248;28;20031;-85
2021/11/04 04:40:38;;;;;;;32.47;16.45;;;;;;;;;;4990471;28;20073;-85
2021/11/04 04:43:04;;;;;;;36.50;17.48;;;;;;;;;;4988061;28;20050;-85
2021/11/04 04:45:30;;;;;;;45.25;18.05;;;;;;;;;;4994328;28;20486;-85
2021/11/04 04:47:56;;;;;;;41.50;18.42;;;;;;;;;;4985548;28;20034;-85
2021/11/04 04:50:22;;;;;;;39.42;17.63;;;;;;;;;;4985486;28;20026;-85
2021/11/04 04:52:48;;;;;;;36.80;18.45;;;;;;;;;;4989207;28;20505;-85
2021/11/04 04:55:14;;;;;;;37.45;18.00;;;;;;;;;;4989324;28;20026;-85
2021/11/04 04:57:40;;;;;;;45.60;17.63;;;;;;;;;;4990751;28;20491;-85
2021/11/04 05:00:11;;;;;;;33.67;16.48;;;;;;;;;;4992781;28;20032;-85
2021/11/04 05:02:38;;;;;;;33.60;17.17;;;;;;;;;;4994974;28;20030;-85
2021/11/04 05:05:04;;;;;;;40.08;18.17;;;;;;;;;;4989663;28;20044;-85
2021/11/04 05:07:30;;;;;;;35.70;17.35;;;;;;;;;;4987038;28;20671;-85
2021/11/04 05:09:56;;;;;;;40.78;19.15;;;;;;;;;;4992916;28;20026;-84
2021/11/04 05:12:22;;;;;;;45.03;18.55;;;;;;;;;;4979914;28;20031;-85
2021/11/04 05:14:48;;;;;;;39.05;17.55;;;;;;;;;;4987517;28;20035;-84
2021/11/04 05:17:14;;;;;;;43.85;19.20;;;;;;;;;;4992998;28;20073;-84
2021/11/04 05:19:40;;;;;;;37.42;17.63;;;;;;;;;;4977093;28;20486;-86
2021/11/04 05:22:06;;;;;;;40.83;19.17;;;;;;;;;;4993407;28;20089;-85
2021/11/04 05:24:34;;;;;;;41.72;18.23;;;;;;;;;;4984295;28;20456;-86
2021/11/04 05:27:04;;;;;;;41.72;19.40;;;;;;;;;;4985608;28;20407;-85
2021/11/04 05:29:30;;;;;;;39.78;18.65;;;;;;;;;;4969889;28;20027;-84
2021/11/04 05:31:57;;;;;;;51.72;19.05;;;;;;;;;;4989833;28;20061;-85
2021/11/04 05:34:23;;;;;;;40.75;19.30;;;;;;;;;;4989092;28;20049;-84
2021/11/04 05:36:49;;;;;;;40.45;19.05;;;;;;;;;;4972855;28;20030;-85
2021/11/04 05:39:15;;;;;;;38.70;18.10;;;;;;;;;;4973634;28;20167;-84
2021/11/04 05:41:42;;;;;;;36.75;17.23;;;;;;;;;;4989675;28;20546;-84
2021/11/04 05:44:08;;;;;;;43.50;19.00;;;;;;;;;;4989999;28;20142;-84
2021/11/04 05:46:34;;;;;;;43.63;19.70;;;;;;;;;;4989456;28;20031;-85
2021/11/04 05:49:00;;;;;;;46.95;19.15;;;;;;;;;;4973191;28;20054;-84
2021/11/04 05:51:26;;;;;;;45.33;20.10;;;;;;;;;;4986653;28;20155;-84
2021/11/04 05:53:52;;;;;;;41.65;18.08;;;;;;;;;;4968020;28;20464;-84
2021/11/04 05:56:18;;;;;;;41.60;17.77;;;;;;;;;;4983555;28;20095;-84
2021/11/04 05:58:44;;;;;;;40.00;18.67;;;;;;;;;;4970355;28;20023;-83
2021/11/04 06:01:10;;;;;;;42.10;18.52;;;;;;;;;;4974696;28;20031;-84
2021/11/04 06:03:36;;;;;;;44.10;18.85;;;;;;;;;;4970745;28;20452;-85
2021/11/04 06:06:02;;;;;;;41.30;18.98;;;;;;;;;;4983382;28;20028;-84
2021/11/04 06:08:28;;;;;;;38.60;18.95;;;;;;;;;;4970927;28;20066;-85
2021/11/04 06:10:54;;;;;;;37.95;17.42;;;;;;;;;;4973343;28;20467;-84
2021/11/04 06:13:20;;;;;;;43.20;18.30;;;;;;;;;;4988074;28;20058;-84
2021/11/04 06:15:46;;;;;;;38.72;17.88;;;;;;;;;;4971421;28;20472;-85
2021/11/04 06:18:12;;;;;;;43.33;19.10;;;;;;;;;;4971604;28;20030;-84
2021/11/04 06:20:38;;;;;;;42.13;18.15;;;;;;;;;;4971059;28;20397;-84
2021/11/04 06:23:04;;;;;;;43.35;17.08;;;;;;;;;;4969697;28;20031;-86
2021/11/04 06:25:30;;;;;;;39.72;16.92;;;;;;;;;;4983041;28;20034;-85
2021/11/04 06:27:56;;;;;;;42.13;18.73;;;;;;;;;;4970345;28;20059;-86
2021/11/04 06:30:22;;;;;;;44.17;18.67;;;;;;;;;;4989471;28;20023;-85
2021/11/04 06:32:49;;;;;;;45.53;19.80;;;;;;;;;;4985789;28;20399;-85
2021/11/04 06:35:16;;;;;;;48.50;20.20;;;;;;;;;;4974009;28;20030;-85
2021/11/04 06:37:42;;;;;;;46.70;20.35;;;;;;;;;;4967931;28;20037;-85
2021/11/04 06:40:09;;;;;;;46.05;18.80;;;;;;;;;;4971809;28;20077;-85
2021/11/04 06:42:35;;;;;;;38.60;18.33;;;;;;;;;;4972363;28;20035;-85
2021/11/04 06:45:01;;;;;;;49.92;20.63;;;;;;;;;;4972647;28;20042;-85
2021/11/04 06:47:32;;;;;;;45.08;19.35;;;;;;;;;;4986096;28;20055;-85
2021/11/04 06:49:58;;;;;;;43.50;19.25;;;;;;;;;;4969278;28;20126;-84
2021/11/04 06:52:26;;;;;;;44.92;19.90;;;;;;;;;;4979872;28;20094;-85
2021/11/04 06:54:54;;;;;;;47.13;19.75;;;;;;;;;;4988573;28;20446;-85
2021/11/04 06:57:20;;;;;;;46.95;20.65;;;;;;;;;;4986189;28;20113;-85
2021/11/04 06:59:49;;;;;;;48.28;20.35;;;;;;;;;;4969953;28;20046;-85
2021/11/04 07:02:23;;;;;;;49.22;19.33;;;;;;;;;;4987983;28;20035;-85
2021/11/04 07:04:50;;;;;;;50.55;18.85;;;;;;;;;;4988772;28;20109;-85
2021/11/04 07:07:18;;;;;;;42.17;19.33;;;;;;;;;;4986164;28;20113;-85
2021/11/04 07:09:44;;;;;;;44.80;19.17;;;;;;;;;;4981701;28;20122;-85
2021/11/04 07:12:11;;;;;;;47.67;20.65;;;;;;;;;;4982640;28;20471;-85
2021/11/04 07:14:39;;;;;;;46.35;20.15;;;;;;;;;;4965594;28;20110;-85
2021/11/04 07:17:05;;;;;;;50.58;21.10;;;;;;;;;;4988011;28;20163;-85
2021/11/04 07:19:32;;;;;;;50.25;20.35;;;;;;;;;;4990345;28;20145;-85
2021/11/04 07:22:12;;;;;;;45.75;20.10;;;;;;;;;;4989796;28;20062;-85
2021/11/04 07:24:44;;;;;;;44.70;18.85;;;;;;;;;;4969385;28;20047;-86
2021/11/04 07:27:14;;;;;;;51.03;21.00;;;;;;;;;;4975456;28;20054;-86
2021/11/04 07:29:41;;;;;;;47.33;20.75;;;;;;;;;;4987947;28;20118;-85
2021/11/04 07:32:09;;;;;;;46.95;19.30;;;;;;;;;;4986006;28;20027;-85
2021/11/04 07:34:35;;;;;;;44.70;20.00;;;;;;;;;;4974573;28;20053;-85
2021/11/04 07:37:01;;;;;;;47.83;21.85;;;;;;;;;;4974011;28;20108;-85
2021/11/04 07:39:27;;;;;;;47.08;19.90;;;;;;;;;;4982210;28;20031;-85
2021/11/04 07:41:53;;;;;;;51.63;21.77;;;;;;;;;;4990034;28;20037;-85
2021/11/04 07:44:20;;;;;;;51.38;20.92;;;;;;;;;;4985626;28;20065;-85
2021/11/04 07:46:46;;;;;;;47.75;19.60;;;;;;;;;;4982795;28;20029;-85
2021/11/04 07:49:12;;;;;;;47.97;20.15;;;;;;;;;;4970491;28;20023;-85
2021/11/04 07:51:38;;;;;;;49.85;21.73;;;;;;;;;;4983813;28;20030;-86
2021/11/04 07:54:07;;;;;;;47.63;21.23;;;;;;;;;;4992596;28;20153;-85
2021/11/04 07:56:34;;;;;;;45.58;20.27;;;;;;;;;;4977229;28;20076;-85
2021/11/04 07:59:00;;;;;;;45.67;20.10;;;;;;;;;;4994169;28;20045;-85
2021/11/04 08:01:26;;;;;;;44.67;20.48;;;;;;;;;;4992959;28;20034;-85
2021/11/04 08:03:52;;;;;;;52.80;22.02;;;;;;;;;;4994238;28;20025;-86
2021/11/04 08:06:18;;;;;;;49.00;20.70;;;;;;;;;;4992773;28;20057;-86
2021/11/04 08:08:44;;;;;;;52.28;21.08;;;;;;;;;;4992506;28;20502;-86
2021/11/04 08:11:10;;;;;;;47.60;20.50;;;;;;;;;;4957572;28;20023;-86
2021/11/04 08:13:36;;;;;;;50.38;21.40;;;;;;;;;;4973622;28;20447;-86
2021/11/04 08:16:02;;;;;;;52.33;21.30;;;;;;;;;;4988458;28;20118;-86
2021/11/04 08:18:28;;;;;;;46.83;22.13;;;;;;;;;;4989568;28;20027;-86
2021/11/04 08:20:54;;;;;;;47.38;20.33;;;;;;;;;;4973464;28;20027;-86
2021/11/04 08:23:20;;;;;;;49.60;20.75;;;;;;;;;;4976072;28;20533;-86
2021/11/04 08:25:47;;;;;;;50.13;21.40;;;;;;;;;;4976035;28;20066;-86
2021/11/04 08:28:12;;;;;;;48.78;21.05;;;;;;;;;;4973353;28;20049;-86
2021/11/04 08:30:39;;;;;;;51.67;21.98;;;;;;;;;;4990430;28;20026;-86
2021/11/04 08:33:05;;;;;;;56.60;22.55;;;;;;;;;;4972191;28;20034;-86
2021/11/04 08:35:31;;;;;;;47.50;20.52;;;;;;;;;;4969665;28;20027;-86
2021/11/04 08:37:57;;;;;;;47.22;21.23;;;;;;;;;;4982979;28;20023;-86
2021/11/04 08:40:23;;;;;;;50.55;21.77;;;;;;;;;;4988024;28;20026;-86
2021/11/04 08:42:50;;;;;;;55.22;21.02;;;;;;;;;;4982367;28;20061;-86
2021/11/04 08:45:16;;;;;;;52.20;21.05;;;;;;;;;;4972529;28;20045;-86
2021/11/04 08:47:42;;;;;;;51.10;21.25;;;;;;;;;;4986282;28;20084;-86
2021/11/04 08:50:10;;;;;;;48.50;20.05;;;;;;;;;;4990135;28;20038;-85
2021/11/04 08:52:36;;;;;;;53.28;22.05;;;;;;;;;;4971103;28;20031;-86
2021/11/04 08:55:04;;;;;;;52.35;21.33;;;;;;;;;;4987330;28;20078;-86
2021/11/04 08:57:30;;;;;;;55.58;21.42;;;;;;;;;;5000740;28;20034;-86
2021/11/04 08:59:56;;;;;;;47.78;20.95;;;;;;;;;;4993549;28;20393;-86
2021/11/04 09:02:22;;;;;;;50.92;21.10;;;;;;;;;;4993853;28;20030;-85
2021/11/04 09:04:48;;;;;;;52.08;21.00;;;;;;;;;;4990417;28;20036;-86
2021/11/04 09:07:14;;;;;;;50.88;20.92;;;;;;;;;;4989669;28;20074;-86
2021/11/04 09:09:40;;;;;;;55.65;22.25;;;;;;;;;;4992076;28;20069;-85
2021/11/04 09:12:07;;;;;;;45.28;20.42;;;;;;;;;;4978905;28;20053;-85
2021/11/04 09:14:33;;;;;;;54.13;22.80;;;;;;;;;;4977948;28;20085;-85
2021/11/04 09:17:00;;;;;;;49.47;20.60;;;;;;;;;;4977094;28;20057;-85
2021/11/04 09:19:26;;;;;;;43.92;19.92;;;;;;;;;;4978003;28;20176;-85
2021/11/04 09:21:52;;;;;;;42.55;18.65;;;;;;;;;;4977103;28;20116;-85
2021/11/04 09:24:18;;;;;;;41.28;19.17;;;;;;;;;;4994060;28;20098;-85
2021/11/04 09:26:44;;;;;;;37.13;18.15;;;;;;;;;;4992467;28;20046;-85
2021/11/04 09:29:10;;;;;;;42.20;17.58;;;;;;;;;;4991246;28;20030;-85
2021/11/04 09:31:36;;;;;;;38.83;17.92;;;;;;;;;;4986181;28;20030;-85
2021/11/04 09:34:03;;;;;;;43.35;17.92;;;;;;;;;;4976193;28;20113;-85
2021/11/04 09:36:30;;;;;;;43.70;17.92;;;;;;;;;;4972116;28;20511;-85
2021/11/04 09:38:59;;;;;;;35.35;17.67;;;;;;;;;;4990783;28;20053;-85
2021/11/04 09:41:25;;;;;;;35.47;16.67;;;;;;;;;;4989238;28;20127;-85
2021/11/04 09:43:51;;;;;;;39.70;16.40;;;;;;;;;;4992025;28;20022;-85
2021/11/04 09:46:17;;;;;;;37.53;17.60;;;;;;;;;;4987829;28;20494;-85
2021/11/04 09:48:43;;;;;;;35.67;15.65;;;;;;;;;;4976543;28;20057;-86
2021/11/04 09:51:10;;;;;;;35.38;15.57;;;;;;;;;;4987761;28;20033;-85
2021/11/04 09:53:36;;;;;;;33.53;17.13;;;;;;;;;;4993573;28;20027;-85
2021/11/04 09:56:03;;;;;;;38.13;17.15;;;;;;;;;;4996337;28;20030;-85
2021/11/04 09:58:29;;;;;;;38.55;16.20;;;;;;;;;;4976722;28;20474;-85
2021/11/04 10:00:55;;;;;;;32.55;14.90;;;;;;;;;;4974679;28;20497;-85
2021/11/04 10:03:21;;;;;;;27.05;13.35;;;;;;;;;;4999762;28;20038;-86
2021/11/04 10:05:49;;;;;;;32.70;14.48;;;;;;;;;;4973609;28;20133;-86
2021/11/04 10:08:16;;;;;;;31.30;14.10;;;;;;;;;;4991960;28;20041;-87
2021/11/04 10:10:43;;;;;;;27.92;13.52;;;;;;;;;;4980753;28;20060;-86
2021/11/04 10:13:10;;;;;;;32.20;14.60;;;;;;;;;;4992759;28;20461;-86
2021/11/04 10:15:38;;;;;;;30.00;12.88;;;;;;;;;;4978304;28;20125;-86
2021/11/04 10:18:18;;;;;;;29.80;12.77;;;;;;;;;;4999940;28;20482;-86
2021/11/04 10:21:05;;;;;;;26.77;12.93;;;;;;;;;;4977617;28;20025;-86
2021/11/04 10:23:38;;;;;;;22.77;10.90;;;;;;;;;;4967551;28;20064;-86
2021/11/04 10:26:13;;;;;;;27.63;12.45;;;;;;;;;;4985315;28;20030;-86
2021/11/04 10:28:40;;;;;;;27.40;12.13;;;;;;;;;;4982113;28;20446;-86
2021/11/04 10:31:07;;;;;;;25.77;11.20;;;;;;;;;;4989317;28;20030;-86
2021/11/04 10:33:35;;;;;;;26.10;11.57;;;;;;;;;;4982129;28;20026;-86
2021/11/04 10:36:01;;;;;;;25.63;12.00;;;;;;;;;;4988238;28;20625;-87
2021/11/04 10:38:31;;;;;;;24.17;10.98;;;;;;;;;;4975103;28;20050;-87
2021/11/04 10:40:57;;;;;;;22.77;10.65;;;;;;;;;;4982844;28;20545;-86
2021/11/04 10:44:03;;;;;;;;;;;;;;;;;;;;;
2021/11/04 10:46:48;;;;;;;23.38;10.30;;;;;;;;;;4972539;28;20050;-86
2021/11/04 10:49:25;;;;;;;26.45;11.40;;;;;;;;;;4979685;28;20031;-86
2021/11/04 10:52:09;;;;;;;21.83;9.63;;;;;;;;;;4983276;28;20026;-86
2021/11/04 10:54:42;;;;;;;17.27;9.10;;;;;;;;;;4989535;28;20034;-86
2021/11/04 10:57:09;;;;;;;19.95;9.90;;;;;;;;;;4987948;28;20509;-87
2021/11/04 10:59:42;;;;;;;21.50;10.60;;;;;;;;;;4997278;28;20118;-86
2021/11/04 11:02:13;;;;;;;20.25;9.30;;;;;;;;;;4974679;28;20026;-86
2021/11/04 11:04:39;;;;;;;19.33;9.85;;;;;;;;;;4984728;28;20430;-86
2021/11/04 11:07:05;;;;;;;18.92;10.13;;;;;;;;;;4978184;28;20031;-87
2021/11/04 11:09:33;;;;;;;21.45;10.50;;;;;;;;;;5005931;28;20023;-87
2021/11/04 11:12:02;;;;;;;21.25;9.77;;;;;;;;;;4992778;28;20098;-86
2021/11/04 11:14:30;;;;;;;24.67;10.88;;;;;;;;;;4997968;28;20030;-85
2021/11/04 11:16:57;;;;;;;24.63;10.57;;;;;;;;;;4974143;28;20524;-85
2021/11/04 11:19:23;;;;;;;31.40;17.92;;;;;;;;;;4990090;28;20501;-84
2021/11/04 11:21:51;;;;;;;19.50;9.70;;;;;;;;;;4981490;28;20019;-84
2021/11/04 11:24:17;;;;;;;19.95;9.43;;;;;;;;;;4989649;28;20109;-84
2021/11/04 11:26:45;;;;;;;23.60;9.80;;;;;;;;;;4972953;28;20166;-85
2021/11/04 11:29:12;;;;;;;20.88;9.07;;;;;;;;;;4991324;28;20438;-85
2021/11/04 11:31:48;;;;;;;22.25;9.40;;;;;;;;;;4988368;28;20018;-85
2021/11/04 11:34:18;;;;;;;21.33;9.73;;;;;;;;;;4989955;28;20391;-85
2021/11/04 11:37:04;;;;;;;19.05;9.10;;;;;;;;;;4985782;28;20022;-85
2021/11/04 11:39:41;;;;;;;18.85;8.65;;;;;;;;;;4994946;28;20121;-85
2021/11/04 11:42:08;;;;;;;17.95;8.20;;;;;;;;;;4984536;28;20026;-85
2021/11/04 11:44:34;;;;;;;18.38;9.27;;;;;;;;;;4994971;28;20055;-85
2021/11/04 11:47:02;;;;;;;18.02;9.30;;;;;;;;;;4973962;28;20035;-85
2021/11/04 11:49:28;;;;;;;19.77;9.55;;;;;;;;;;4979205;28;20049;-85
2021/11/04 11:51:54;;;;;;;17.30;8.40;;;;;;;;;;4986831;28;20352;-85
2021/11/04 11:54:21;;;;;;;17.88;8.18;;;;;;;;;;4977630;28;20084;-85
2021/11/04 11:57:06;;;;;;;13.00;6.47;;;;;;;;;;4969659;28;20033;-85
2021/11/04 11:59:47;;;;;;;13.98;7.38;;;;;;;;;;4987708;28;20105;-85
2021/11/04 12:02:33;;;;;;;18.42;7.65;;;;;;;;;;4989069;28;20060;-85
2021/11/04 12:05:18;;;;;;;14.43;7.32;;;;;;;;;;4957103;28;20402;-85
2021/11/04 12:07:44;;;;;;;17.73;7.82;;;;;;;;;;4975302;28;20032;-85
2021/11/04 12:10:29;;;;;;;13.82;7.53;;;;;;;;;;4990109;28;20030;-85
2021/11/04 12:12:55;;;;;;;17.30;6.93;;;;;;;;;;4988262;28;20031;-85
2021/11/04 12:15:21;;;;;;;15.27;7.60;;;;;;;;;;4975529;28;20034;-85
2021/11/04 12:18:06;;;;;;;16.50;7.47;;;;;;;;;;4991767;28;20359;-86
2021/11/04 12:20:32;;;;;;;12.95;6.20;;;;;;;;;;4974318;28;20065;-85
2021/11/04 12:22:58;;;;;;;13.50;6.78;;;;;;;;;;4986778;28;20045;-85
2021/11/04 12:25:25;;;;;;;15.80;6.97;;;;;;;;;;4977704;28;20486;-85
2021/11/04 12:27:57;;;;;;;11.98;6.40;;;;;;;;;;4983744;28;20502;-85
2021/11/04 12:30:25;;;;;;;13.18;6.65;;;;;;;;;;4973780;28;20528;-85
2021/11/04 12:33:03;;;;;;;14.32;6.35;;;;;;;;;;4981688;28;20066;-85
2021/11/04 12:35:48;;;;;;;16.48;7.60;;;;;;;;;;4994269;28;20170;-85
2021/11/04 12:38:15;;;;;;;12.35;6.60;;;;;;;;;;4983824;28;20030;-85
2021/11/04 12:40:41;;;;;;;12.95;6.05;;;;;;;;;;4984137;28;20068;-85
2021/11/04 12:43:08;;;;;;;13.60;6.00;;;;;;;;;;4986114;28;20041;-85
2021/11/04 12:45:35;;;;;;;14.77;6.82;;;;;;;;;;4980835;28;20022;-85
2021/11/04 12:48:02;;;;;;;14.32;6.82;;;;;;;;;;4987432;28;20050;-85
2021/11/04 12:50:29;;;;;;;12.40;6.70;;;;;;;;;;4986708;28;20042;-85
2021/11/04 12:53:05;;;;;;;12.90;6.30;;;;;;;;;;4996142;28;20018;-85
2021/11/04 12:55:31;;;;;;;10.73;5.80;;;;;;;;;;4993088;28;20034;-85
2021/11/04 12:58:01;;;;;;;11.27;5.95;;;;;;;;;;4993264;28;20038;-85
2021/11/04 13:00:27;;;;;;;11.25;5.78;;;;;;;;;;4988585;28;20027;-85
2021/11/04 13:02:53;;;;;;;12.45;5.45;;;;;;;;;;4979743;28;20034;-86
2021/11/04 13:05:21;;;;;;;10.32;5.28;;;;;;;;;;5010588;28;20030;-85
2021/11/04 13:07:54;;;;;;;10.70;5.22;;;;;;;;;;5000651;28;20033;-85
2021/11/04 13:10:24;;;;;;;9.35;5.18;;;;;;;;;;4999247;28;20023;-85
2021/11/04 13:12:51;;;;;;;10.00;5.03;;;;;;;;;;4996044;28;20478;-85
2021/11/04 13:15:21;;;;;;;9.00;5.18;;;;;;;;;;4997739;28;20026;-85
2021/11/04 13:17:50;;;;;;;9.13;4.47;;;;;;;;;;5004695;28;20027;-83
2021/11/04 13:20:18;;;;;;;9.05;4.45;;;;;;;;;;4982599;28;20505;-84
2021/11/04 13:22:46;;;;;;;9.45;4.82;;;;;;;;;;4993092;28;20387;-85
2021/11/04 13:25:13;;;;;;;15.02;6.47;;;;;;;;;;4994828;28;20030;-85
2021/11/04 13:27:40;;;;;;;11.52;6.55;;;;;;;;;;4995581;28;20054;-85
2021/11/04 13:30:07;;;;;;;11.05;4.78;;;;;;;;;;4994882;28;20023;-85
2021/11/04 13:32:34;;;;;;;14.23;6.20;;;;;;;;;;4994873;28;20033;-85
2021/11/04 13:35:01;;;;;;;17.45;7.18;;;;;;;;;;4977325;28;20474;-85
2021/11/04 13:37:28;;;;;;;9.10;4.72;;;;;;;;;;4980666;28;20110;-85
2021/11/04 13:39:55;;;;;;;7.95;4.10;;;;;;;;;;4975475;28;20027;-85
2021/11/04 13:42:27;;;;;;;7.78;4.38;;;;;;;;;;4987643;28;20037;-85
2021/11/04 13:45:06;;;;;;;9.88;4.93;;;;;;;;;;4977992;28;20034;-85
2021/11/04 13:47:33;;;;;;;9.65;5.40;;;;;;;;;;4987500;28;20031;-85
2021/11/04 13:49:59;;;;;;;8.98;5.20;;;;;;;;;;4983136;28;20026;-85
2021/11/04 13:52:25;;;;;;;8.90;4.30;;;;;;;;;;4988438;28;20026;-85
2021/11/04 13:54:51;;;;;;;9.70;5.40;;;;;;;;;;4987850;28;20019;-86
2021/11/04 13:57:17;;;;;;;12.23;5.63;;;;;;;;;;4984828;28;20046;-85
2021/11/04 13:59:56;;;;;;;11.27;5.47;;;;;;;;;;4994472;28;20030;-85
2021/11/04 14:02:23;;;;;;;7.80;4.75;;;;;;;;;;4973697;28;20030;-85
2021/11/04 14:04:53;;;;;;;10.98;5.28;;;;;;;;;;4991646;28;20022;-84
2021/11/04 14:07:27;;;;;;;9.73;4.90;;;;;;;;;;4989792;28;20019;-84
2021/11/04 14:10:00;;;;;;;7.63;4.50;;;;;;;;;;4989474;28;20478;-84
2021/11/04 14:12:33;;;;;;;9.25;5.13;;;;;;;;;;4990199;28;20703;-84
2021/11/04 14:15:11;;;;;;;11.88;6.05;;;;;;;;;;4993879;28;20042;-84
2021/11/04 14:17:48;;;;;;;10.07;5.53;;;;;;;;;;4979137;28;20080;-84
2021/11/04 14:20:14;;;;;;;13.05;5.50;;;;;;;;;;4986962;28;20121;-85
2021/11/04 14:22:40;;;;;;;12.48;6.10;;;;;;;;;;4975492;28;20041;-84
2021/11/04 14:25:10;;;;;;;13.95;6.85;;;;;;;;;;4986417;28;20149;-84
2021/11/04 14:27:36;;;;;;;12.98;6.75;;;;;;;;;;4980146;28;20517;-85